Terminal Aerodrome Forecast
Issued by NWS

Home | Current Version | Previous Version | Text Only | Print | Product List | Glossary On
Versions: 1 2 3 4 5 6 7 8 9 10 11 12 13 14 15 16 17 18 19 20 21
000
FTAK31 PAJN 130500
TAFASI
TAF
PASI 130522Z 1306/1406 20005KT 3SM -RA BR BKN006 OVC012
     FM130900 VRB03KT 2SM -DZ BR BKN004 OVC008
     FM132000 22005KT 5SM -DZ BR SCT007 OVC015
     FM140300 22005KT P6SM SCT007 OVC025=

USA.gov is the U.S. government's official web portal to all federal, state and local government web resources and services.